Time;durP1;ratioP1;P1;durP2;ratioP2;P2;SDS_P1;SDS_P2;PMS_P1;PMS_P2;Temp;Humidity;BMP_temperature;BMP_pressure;BME280_temperature;BME280_humidity;BME280_pressure;Samples;Min_cycle;Max_cycle;Signal;HPM_P1;HPM_P2
2022/10/16 00:01:22;;;;;;;3.00;1.05;;;;;19.00;100756.00;;;;5086790;28;20623;-76
2022/10/16 00:03:50;;;;;;;2.13;1.00;;;;;19.00;100767.00;;;;5088727;28;20668;-76
2022/10/16 00:06:21;;;;;;;2.00;0.90;;;;;19.00;100759.00;;;;5072248;28;20187;-76
2022/10/16 00:08:49;;;;;;;2.85;0.90;;;;;19.00;100760.00;;;;5068162;28;20202;-76
2022/10/16 00:11:18;;;;;;;1.60;0.70;;;;;19.00;100765.00;;;;5067595;28;20677;-77
2022/10/16 00:13:49;;;;;;;1.45;1.00;;;;;18.90;100762.00;;;;5068176;28;20223;-78
2022/10/16 00:16:19;;;;;;;2.03;0.88;;;;;18.90;100771.00;;;;5077935;28;20230;-77
2022/10/16 00:18:46;;;;;;;2.65;0.82;;;;;18.90;100758.00;;;;5086168;28;20205;-77
2022/10/16 00:21:15;;;;;;;3.03;1.42;;;;;18.90;100760.00;;;;5087986;28;20236;-77
2022/10/16 00:23:44;;;;;;;4.15;1.17;;;;;18.90;100769.00;;;;5087749;28;20717;-77
2022/10/16 00:26:14;;;;;;;1.88;0.88;;;;;18.90;100766.00;;;;5086504;28;20209;-77
2022/10/16 00:28:41;;;;;;;5.53;1.48;;;;;18.90;100763.00;;;;5086766;28;20582;-77
2022/10/16 00:31:11;;;;;;;2.17;1.13;;;;;18.90;100757.00;;;;5081761;28;20195;-77
2022/10/16 00:33:40;;;;;;;1.70;1.27;;;;;18.90;100758.00;;;;5075569;28;20242;-77
2022/10/16 00:36:11;;;;;;;4.90;1.48;;;;;18.90;100756.00;;;;5086488;28;20190;-77
2022/10/16 00:38:39;;;;;;;3.50;1.55;;;;;18.90;100762.00;;;;5088069;28;20194;-77
2022/10/16 00:41:10;;;;;;;2.50;1.48;;;;;18.90;100752.00;;;;5087120;28;20586;-77
2022/10/16 00:43:41;;;;;;;3.22;1.65;;;;;18.90;100758.00;;;;5082394;28;20677;-77
2022/10/16 00:46:17;;;;;;;4.45;2.00;;;;;18.80;100754.00;;;;5067752;28;20187;-77
2022/10/16 00:48:49;;;;;;;2.13;1.83;;;;;18.90;100767.00;;;;5082950;28;20209;-77
2022/10/16 00:51:18;;;;;;;2.75;2.03;;;;;18.90;100760.00;;;;5087351;28;20207;-77
2022/10/16 00:53:46;;;;;;;3.17;1.90;;;;;18.90;100759.00;;;;5082465;28;20230;-77
2022/10/16 00:56:15;;;;;;;3.70;2.20;;;;;18.90;100765.00;;;;5083351;28;20199;-77
2022/10/16 00:58:42;;;;;;;3.80;2.55;;;;;18.90;100767.00;;;;5090625;28;20217;-77
2022/10/16 01:01:10;;;;;;;5.72;2.30;;;;;18.90;100764.00;;;;5082663;28;20197;-77
2022/10/16 01:03:38;;;;;;;4.63;2.25;;;;;18.90;100766.00;;;;5080574;28;20202;-77
2022/10/16 01:06:24;;;;;;;10.77;2.15;;;;;18.90;100773.00;;;;5087933;28;20988;-78
2022/10/16 01:09:02;;;;;;;2.63;1.85;;;;;18.90;100767.00;;;;5089559;28;20293;-77
2022/10/16 01:11:38;;;;;;;2.75;1.90;;;;;18.90;100779.00;;;;5091363;28;20190;-77
2022/10/16 01:14:12;;;;;;;3.15;2.10;;;;;18.90;100774.00;;;;5086929;28;20229;-77
2022/10/16 01:16:45;;;;;;;2.95;1.67;;;;;19.00;100773.00;;;;5082368;28;20210;-77
2022/10/16 01:19:20;;;;;;;3.78;2.05;;;;;19.00;100768.00;;;;5087992;28;20194;-77
2022/10/16 01:21:52;;;;;;;4.90;2.03;;;;;19.00;100764.00;;;;5090793;28;20683;-77
2022/10/16 01:24:32;;;;;;;3.10;2.10;;;;;19.00;100766.00;;;;5090458;28;20231;-77
2022/10/16 01:27:16;;;;;;;3.45;1.80;;;;;18.90;100773.00;;;;5089575;28;20206;-77
2022/10/16 01:29:53;;;;;;;2.17;1.40;;;;;19.00;100774.00;;;;5077779;28;20742;-77
2022/10/16 01:32:24;;;;;;;3.03;1.58;;;;;19.00;100770.00;;;;5071178;28;20203;-78
2022/10/16 01:34:55;;;;;;;2.63;1.63;;;;;19.00;100775.00;;;;5070923;28;20223;-77
2022/10/16 01:37:34;;;;;;;2.35;1.52;;;;;19.00;100764.00;;;;5073832;28;20199;-78
2022/10/16 01:40:06;;;;;;;3.08;1.92;;;;;19.10;100764.00;;;;5089858;28;20202;-77
2022/10/16 01:42:38;;;;;;;2.45;1.77;;;;;19.10;100764.00;;;;5089984;28;20209;-77
2022/10/16 01:45:08;;;;;;;4.20;1.52;;;;;19.10;100759.00;;;;5075308;28;20194;-77
2022/10/16 01:47:37;;;;;;;2.47;1.67;;;;;19.10;100757.00;;;;5073808;28;20226;-77
2022/10/16 01:50:06;;;;;;;2.60;1.60;;;;;19.10;100747.00;;;;5090574;28;20209;-77
2022/10/16 01:52:36;;;;;;;2.60;1.67;;;;;19.20;100749.00;;;;5090370;28;20548;-77
2022/10/16 01:55:07;;;;;;;5.07;1.98;;;;;19.20;100751.00;;;;5089724;28;20225;-77
2022/10/16 01:57:38;;;;;;;4.47;1.67;;;;;19.20;100759.00;;;;5086757;28;20207;-78
2022/10/16 02:00:11;;;;;;;3.95;1.40;;;;;19.20;100755.00;;;;5082893;28;20191;-77
2022/10/16 02:02:41;;;;;;;2.90;2.00;;;;;19.20;100751.00;;;;5087759;28;20195;-77
2022/10/16 02:05:15;;;;;;;3.40;1.55;;;;;19.20;100758.00;;;;5079485;28;20206;-77
2022/10/16 02:07:43;;;;;;;2.35;1.60;;;;;19.20;100761.00;;;;5073793;28;20659;-77
2022/10/16 02:10:11;;;;;;;2.00;1.42;;;;;19.20;100767.00;;;;5088755;28;20195;-78
2022/10/16 02:12:44;;;;;;;2.00;1.25;;;;;19.20;100766.00;;;;5090320;28;20198;-77
2022/10/16 02:15:11;;;;;;;4.90;1.58;;;;;19.30;100770.00;;;;5088131;28;20226;-78
2022/10/16 02:17:39;;;;;;;3.05;1.30;;;;;19.30;100768.00;;;;5081152;28;20487;-78
2022/10/16 02:20:07;;;;;;;2.92;1.40;;;;;19.30;100765.00;;;;5089886;28;20202;-77
2022/10/16 02:22:40;;;;;;;2.25;1.20;;;;;19.20;100772.00;;;;5089318;28;20221;-78
2022/10/16 02:25:11;;;;;;;3.35;1.35;;;;;19.30;100778.00;;;;5081726;28;20190;-78
2022/10/16 02:27:47;;;;;;;3.85;1.80;;;;;19.20;100781.00;;;;5089984;28;20206;-77
2022/10/16 02:30:18;;;;;;;3.42;1.50;;;;;19.30;100771.00;;;;5089485;28;20226;-77
2022/10/16 02:32:49;;;;;;;3.42;1.17;;;;;19.30;100776.00;;;;5074958;28;20205;-78
2022/10/16 02:35:19;;;;;;;3.60;1.42;;;;;19.30;100778.00;;;;5073997;28;20245;-77
2022/10/16 02:37:47;;;;;;;1.95;1.25;;;;;19.30;100782.00;;;;5077299;28;20191;-77
2022/10/16 02:40:15;;;;;;;3.05;1.42;;;;;19.30;100779.00;;;;5087793;28;20203;-78
2022/10/16 02:42:44;;;;;;;2.03;1.58;;;;;19.20;100781.00;;;;5089373;28;20186;-77
2022/10/16 02:45:13;;;;;;;2.17;1.80;;;;;19.20;100775.00;;;;5088732;28;20565;-77
2022/10/16 02:47:40;;;;;;;2.90;1.98;;;;;19.20;100773.00;;;;5084987;28;20684;-77
2022/10/16 02:50:08;;;;;;;2.60;2.00;;;;;19.30;100778.00;;;;5073261;28;20201;-77
2022/10/16 02:52:35;;;;;;;1.90;1.75;;;;;19.30;100772.00;;;;5088197;28;20210;-77
2022/10/16 02:55:03;;;;;;;2.33;1.50;;;;;19.30;100778.00;;;;5071665;28;20226;-78
2022/10/16 02:57:31;;;;;;;2.97;2.28;;;;;19.20;100786.00;;;;5069839;28;20194;-78
2022/10/16 03:00:00;;;;;;;2.75;1.52;;;;;19.20;100788.00;;;;5087786;28;20191;-77
2022/10/16 03:02:27;;;;;;;1.75;1.40;;;;;19.20;100783.00;;;;5088906;28;20209;-77
2022/10/16 03:04:54;;;;;;;3.50;1.13;;;;;19.20;100776.00;;;;5079780;28;20195;-77
2022/10/16 03:07:22;;;;;;;1.80;1.33;;;;;19.20;100774.00;;;;5076195;28;20190;-78
2022/10/16 03:09:49;;;;;;;5.03;1.40;;;;;19.20;100774.00;;;;5079183;28;20206;-77
2022/10/16 03:12:16;;;;;;;2.33;1.30;;;;;19.20;100773.00;;;;5089011;28;20199;-77
2022/10/16 03:14:44;;;;;;;3.35;1.33;;;;;19.20;100779.00;;;;5089090;28;20218;-77
2022/10/16 03:17:13;;;;;;;2.65;1.42;;;;;19.20;100778.00;;;;5087544;28;20205;-78
2022/10/16 03:19:40;;;;;;;1.42;1.13;;;;;19.20;100783.00;;;;5075902;28;20198;-77
2022/10/16 03:22:08;;;;;;;2.25;1.10;;;;;19.20;100791.00;;;;5087374;28;20215;-77
2022/10/16 03:24:35;;;;;;;3.17;1.42;;;;;19.20;100787.00;;;;5087169;28;20255;-77
2022/10/16 03:27:02;;;;;;;1.85;1.10;;;;;19.20;100781.00;;;;5088427;28;20211;-77
2022/10/16 03:29:30;;;;;;;2.20;1.10;;;;;19.20;100784.00;;;;5082651;28;21037;-77
2022/10/16 03:31:57;;;;;;;1.70;1.30;;;;;19.20;100796.00;;;;5073783;28;20194;-77
2022/10/16 03:34:26;;;;;;;2.33;1.58;;;;;19.20;100792.00;;;;5080179;28;20203;-77
2022/10/16 03:36:53;;;;;;;13.05;1.80;;;;;19.20;100784.00;;;;5067927;28;20253;-77
2022/10/16 03:39:21;;;;;;;4.60;1.80;;;;;19.20;100794.00;;;;5071913;28;20190;-78
2022/10/16 03:41:48;;;;;;;5.25;1.45;;;;;19.20;100799.00;;;;5088524;28;20210;-77
2022/10/16 03:44:15;;;;;;;2.28;1.40;;;;;19.20;100796.00;;;;5086603;28;20210;-77
2022/10/16 03:46:43;;;;;;;2.17;1.60;;;;;19.20;100804.00;;;;5088213;28;20209;-77
2022/10/16 03:49:10;;;;;;;2.72;1.92;;;;;19.20;100807.00;;;;5085154;28;20202;-77
2022/10/16 03:51:38;;;;;;;1.65;1.27;;;;;19.10;100802.00;;;;5088321;28;20213;-77
2022/10/16 03:54:06;;;;;;;1.80;1.35;;;;;19.20;100800.00;;;;5086479;28;20201;-77
2022/10/16 03:56:33;;;;;;;2.72;1.23;;;;;19.10;100805.00;;;;5088239;28;20237;-77
2022/10/16 03:59:00;;;;;;;2.03;1.33;;;;;19.10;100818.00;;;;5087752;28;20192;-77
2022/10/16 04:01:27;;;;;;;1.15;1.00;;;;;19.10;100809.00;;;;5068368;28;20195;-77
2022/10/16 04:03:55;;;;;;;3.92;1.48;;;;;19.10;100815.00;;;;5069030;28;20201;-77
2022/10/16 04:06:22;;;;;;;1.92;1.00;;;;;19.10;100818.00;;;;5067683;28;20210;-78
2022/10/16 04:08:51;;;;;;;3.95;1.33;;;;;19.00;100820.00;;;;5077496;28;20215;-77
2022/10/16 04:11:18;;;;;;;1.60;0.98;;;;;19.00;100823.00;;;;5086821;28;20679;-78
2022/10/16 04:13:45;;;;;;;1.58;1.20;;;;;19.00;100830.00;;;;5087572;28;20194;-78
2022/10/16 04:16:13;;;;;;;1.10;0.80;;;;;19.00;100835.00;;;;5086614;28;20228;-77
2022/10/16 04:18:40;;;;;;;1.65;1.20;;;;;19.00;100836.00;;;;5087723;28;20202;-77
2022/10/16 04:21:08;;;;;;;0.88;0.77;;;;;19.00;100846.00;;;;5086439;28;20214;-78
2022/10/16 04:23:35;;;;;;;4.10;1.13;;;;;19.00;100849.00;;;;5075379;28;20210;-77
2022/10/16 04:26:04;;;;;;;1.52;0.90;;;;;19.00;100845.00;;;;5067863;28;20229;-77
2022/10/16 04:28:31;;;;;;;1.70;0.93;;;;;19.00;100844.00;;;;5077712;28;20202;-77
2022/10/16 04:30:58;;;;;;;1.38;0.82;;;;;19.00;100849.00;;;;5077867;28;20203;-77
2022/10/16 04:33:26;;;;;;;2.67;1.40;;;;;18.90;100856.00;;;;5087837;28;20198;-77
2022/10/16 04:36:04;;;;;;;2.47;0.80;;;;;18.80;100857.00;;;;5091083;28;20436;-77
2022/10/16 04:38:31;;;;;;;1.23;0.75;;;;;18.90;100862.00;;;;5091152;28;20198;-77
2022/10/16 04:40:59;;;;;;;1.25;0.70;;;;;18.90;100855.00;;;;5090519;28;20234;-77
2022/10/16 04:43:28;;;;;;;1.60;0.98;;;;;18.90;100856.00;;;;5090636;28;20664;-77
2022/10/16 04:45:56;;;;;;;1.20;0.75;;;;;18.90;100857.00;;;;5091641;28;20206;-77
2022/10/16 04:48:23;;;;;;;1.58;1.15;;;;;18.90;100861.00;;;;5090987;28;20205;-77
2022/10/16 04:50:51;;;;;;;1.48;0.98;;;;;18.90;100869.00;;;;5090672;28;20202;-77
2022/10/16 04:53:19;;;;;;;1.25;0.70;;;;;18.80;100881.00;;;;5084249;28;20198;-77
2022/10/16 04:55:46;;;;;;;2.90;0.85;;;;;18.80;100879.00;;;;5091562;28;20233;-77
2022/10/16 04:58:13;;;;;;;3.00;0.73;;;;;18.80;100882.00;;;;5091719;28;20191;-77
2022/10/16 05:00:42;;;;;;;0.70;0.63;;;;;18.80;100878.00;;;;5088794;28;20202;-77
2022/10/16 05:03:11;;;;;;;1.25;0.70;;;;;18.80;100878.00;;;;5090778;28;20221;-77
2022/10/16 05:05:43;;;;;;;1.33;0.70;;;;;18.80;100893.00;;;;5071772;28;20222;-77
2022/10/16 05:08:10;;;;;;;1.70;0.65;;;;;18.80;100893.00;;;;5086355;28;20202;-77
2022/10/16 05:10:37;;;;;;;1.80;0.93;;;;;18.80;100887.00;;;;5088122;28;20205;-77
2022/10/16 05:13:04;;;;;;;2.22;0.93;;;;;18.80;100901.00;;;;5090268;28;20201;-78
2022/10/16 05:15:32;;;;;;;1.00;0.57;;;;;18.80;100910.00;;;;5090759;28;20214;-77
2022/10/16 05:18:00;;;;;;;2.63;1.20;;;;;18.80;100906.00;;;;5090646;28;20208;-77
2022/10/16 05:20:28;;;;;;;1.02;0.68;;;;;18.80;100906.00;;;;5089687;28;20582;-78
2022/10/16 05:22:55;;;;;;;1.30;0.88;;;;;18.80;100919.00;;;;5091053;28;20214;-78
2022/10/16 05:25:22;;;;;;;1.10;0.73;;;;;18.80;100917.00;;;;5090196;28;20222;-77
2022/10/16 05:27:50;;;;;;;1.75;0.60;;;;;18.70;100928.00;;;;5091444;28;20208;-77
2022/10/16 05:30:18;;;;;;;0.90;0.70;;;;;18.70;100920.00;;;;5084103;28;20233;-77
2022/10/16 05:32:48;;;;;;;1.38;1.00;;;;;18.70;100921.00;;;;5079620;28;20199;-77
2022/10/16 05:35:18;;;;;;;1.27;0.93;;;;;18.70;100922.00;;;;5073576;28;20231;-77
2022/10/16 05:37:45;;;;;;;1.30;0.68;;;;;18.70;100932.00;;;;5070977;28;20187;-77
2022/10/16 05:40:13;;;;;;;0.82;0.63;;;;;18.70;100934.00;;;;5074567;28;20194;-77
2022/10/16 05:42:41;;;;;;;1.08;0.75;;;;;18.70;100935.00;;;;5081013;28;20683;-77
2022/10/16 05:45:12;;;;;;;1.90;0.73;;;;;18.70;100949.00;;;;5070243;28;20675;-77
2022/10/16 05:47:39;;;;;;;3.88;1.25;;;;;18.70;100950.00;;;;5071284;28;20199;-77
2022/10/16 05:50:07;;;;;;;1.75;0.80;;;;;18.70;100951.00;;;;5070553;28;20210;-77
2022/10/16 05:52:35;;;;;;;1.30;0.85;;;;;18.70;100953.00;;;;5070647;28;20195;-77
2022/10/16 05:55:03;;;;;;;1.85;0.73;;;;;18.70;100963.00;;;;5070845;28;20199;-77
2022/10/16 05:57:31;;;;;;;1.10;0.73;;;;;18.70;100963.00;;;;5073204;28;20190;-77
2022/10/16 05:59:58;;;;;;;1.27;0.70;;;;;18.70;100963.00;;;;5072613;28;20195;-77
2022/10/16 06:02:25;;;;;;;2.17;1.02;;;;;18.70;100961.00;;;;5090664;28;20202;-77
2022/10/16 06:04:54;;;;;;;1.27;0.90;;;;;18.70;100966.00;;;;5073850;28;20203;-77
2022/10/16 06:07:22;;;;;;;1.75;0.80;;;;;18.70;100968.00;;;;5077983;28;20244;-77
2022/10/16 06:09:51;;;;;;;1.38;0.90;;;;;18.70;100971.00;;;;5090557;28;20213;-77
2022/10/16 06:12:19;;;;;;;1.70;1.08;;;;;18.70;100976.00;;;;5088254;28;20198;-77
2022/10/16 06:14:47;;;;;;;1.15;0.90;;;;;18.70;100982.00;;;;5089599;28;20242;-77
2022/10/16 06:17:14;;;;;;;5.28;1.20;;;;;18.70;100985.00;;;;5089747;28;20283;-77
2022/10/16 06:19:41;;;;;;;1.10;0.88;;;;;18.70;100989.00;;;;5086988;28;20191;-77
2022/10/16 06:22:09;;;;;;;1.13;0.90;;;;;18.70;100995.00;;;;5085324;28;20225;-77
2022/10/16 06:24:36;;;;;;;1.20;1.00;;;;;18.70;101004.00;;;;5088991;28;20210;-76
2022/10/16 06:27:06;;;;;;;0.98;0.57;;;;;18.70;100999.00;;;;5090183;28;20206;-77
2022/10/16 06:29:33;;;;;;;1.20;1.00;;;;;18.70;100999.00;;;;5080977;28;20603;-77
2022/10/16 06:32:01;;;;;;;1.23;0.93;;;;;18.70;101006.00;;;;5073854;28;20205;-77
2022/10/16 06:34:28;;;;;;;1.38;0.77;;;;;18.70;101005.00;;;;5084251;28;20195;-77
2022/10/16 06:36:55;;;;;;;1.23;0.80;;;;;18.80;101017.00;;;;5089403;28;20326;-77
2022/10/16 06:39:22;;;;;;;6.32;1.00;;;;;18.80;101021.00;;;;5086679;28;20661;-77
2022/10/16 06:41:50;;;;;;;1.25;0.70;;;;;18.80;101023.00;;;;5089316;28;20198;-78
2022/10/16 06:44:18;;;;;;;2.97;1.00;;;;;18.80;101032.00;;;;5088010;28;20229;-77
2022/10/16 06:46:46;;;;;;;2.38;1.00;;;;;18.80;101035.00;;;;5087965;28;20214;-77
2022/10/16 06:49:13;;;;;;;1.73;1.00;;;;;18.80;101042.00;;;;5087295;28;20249;-77
2022/10/16 06:51:41;;;;;;;2.22;1.10;;;;;18.80;101042.00;;;;5089152;28;20214;-77
2022/10/16 06:54:09;;;;;;;1.48;0.73;;;;;18.90;101044.00;;;;5088710;28;20225;-77
2022/10/16 06:56:36;;;;;;;0.90;0.70;;;;;18.90;101049.00;;;;5069019;28;20254;-77
2022/10/16 06:59:04;;;;;;;1.67;1.38;;;;;18.90;101050.00;;;;5086396;28;20201;-77
2022/10/16 07:01:33;;;;;;;1.40;0.88;;;;;18.90;101054.00;;;;5084242;28;20202;-77
2022/10/16 07:04:01;;;;;;;2.53;0.95;;;;;18.90;101061.00;;;;5086099;28;20198;-77
2022/10/16 07:06:31;;;;;;;3.17;0.93;;;;;18.90;101069.00;;;;5088889;28;20234;-76
2022/10/16 07:08:58;;;;;;;2.28;0.90;;;;;18.90;101073.00;;;;5072811;28;20195;-77
2022/10/16 07:11:26;;;;;;;2.80;0.73;;;;;18.90;101083.00;;;;5086076;28;20261;-77
2022/10/16 07:13:53;;;;;;;1.35;0.80;;;;;19.00;101087.00;;;;5079674;28;20198;-77
2022/10/16 07:16:22;;;;;;;1.45;0.90;;;;;19.00;101087.00;;;;5068315;28;20219;-77
2022/10/16 07:18:57;;;;;;;4.20;1.23;;;;;18.90;101067.00;;;;5083591;28;20206;-77
2022/10/16 07:21:25;;;;;;;1.88;0.93;;;;;19.00;101065.00;;;;5086164;28;20340;-77
2022/10/16 07:23:53;;;;;;;2.15;0.85;;;;;19.00;101082.00;;;;5086313;28;20612;-77
2022/10/16 07:26:20;;;;;;;1.65;0.90;;;;;19.00;101083.00;;;;5088197;28;20198;-77
2022/10/16 07:28:48;;;;;;;1.67;0.80;;;;;19.00;101085.00;;;;5087282;28;20198;-77
2022/10/16 07:31:17;;;;;;;1.95;0.95;;;;;19.00;101085.00;;;;5080643;28;20201;-77
2022/10/16 07:33:46;;;;;;;1.45;0.82;;;;;19.00;101094.00;;;;5075022;28;20202;-76
2022/10/16 07:36:16;;;;;;;1.80;1.05;;;;;19.00;101093.00;;;;5087425;28;21119;-78
2022/10/16 07:38:43;;;;;;;3.00;1.10;;;;;19.00;101104.00;;;;5089170;28;20193;-77
2022/10/16 07:41:13;;;;;;;1.30;0.93;;;;;19.10;101116.00;;;;5087576;28;20229;-77
2022/10/16 07:43:41;;;;;;;2.75;1.25;;;;;19.10;101119.00;;;;5064045;28;20190;-77
2022/10/16 07:46:08;;;;;;;1.88;0.90;;;;;19.10;101122.00;;;;5070376;28;20195;-77
2022/10/16 07:48:36;;;;;;;3.45;1.15;;;;;19.10;101131.00;;;;5078902;28;20218;-77
2022/10/16 07:51:06;;;;;;;1.70;1.25;;;;;19.10;101138.00;;;;5086215;28;20259;-77
2022/10/16 07:53:34;;;;;;;1.77;1.00;;;;;19.10;101137.00;;;;5068599;28;20206;-77
2022/10/16 07:56:03;;;;;;;2.47;1.30;;;;;19.20;101150.00;;;;5075147;28;20587;-77
2022/10/16 07:58:31;;;;;;;1.77;0.93;;;;;19.30;101150.00;;;;5075962;28;20210;-77
2022/10/16 08:00:59;;;;;;;2.20;1.00;;;;;19.30;101149.00;;;;5082031;28;20201;-77
2022/10/16 08:03:27;;;;;;;1.27;0.88;;;;;19.40;101153.00;;;;5076437;28;20207;-77
2022/10/16 08:05:54;;;;;;;1.83;0.85;;;;;19.40;101146.00;;;;5086024;28;20198;-78
2022/10/16 08:08:21;;;;;;;3.35;0.98;;;;;19.40;101162.00;;;;5082944;28;20198;-78
2022/10/16 08:10:50;;;;;;;2.13;1.10;;;;;19.50;101154.00;;;;5083785;28;20190;-75
2022/10/16 08:13:17;;;;;;;4.65;1.02;;;;;19.50;101164.00;;;;5072517;28;20223;-78
2022/10/16 08:15:45;;;;;;;1.02;0.80;;;;;19.60;101167.00;;;;5076511;28;20210;-78
2022/10/16 08:18:14;;;;;;;2.33;1.35;;;;;19.60;101167.00;;;;5075708;28;20218;-76
2022/10/16 08:20:42;;;;;;;1.70;1.08;;;;;19.70;101182.00;;;;5075229;28;20222;-79
2022/10/16 08:23:11;;;;;;;2.58;1.08;;;;;19.80;101180.00;;;;5087029;28;20214;-77
2022/10/16 08:25:39;;;;;;;7.05;0.93;;;;;19.80;101180.00;;;;5088670;28;20209;-77
2022/10/16 08:28:08;;;;;;;2.83;1.30;;;;;19.80;101182.00;;;;5085295;28;20194;-76
2022/10/16 08:30:36;;;;;;;3.33;1.08;;;;;19.90;101185.00;;;;5087246;28;20232;-76
2022/10/16 08:33:04;;;;;;;2.22;0.75;;;;;20.00;101191.00;;;;5076120;28;20206;-77
2022/10/16 08:35:31;;;;;;;1.15;1.05;;;;;20.00;101199.00;;;;5067858;28;20211;-77
2022/10/16 08:37:58;;;;;;;1.15;0.80;;;;;20.10;101192.00;;;;5078249;28;20215;-76
2022/10/16 08:40:28;;;;;;;1.58;0.73;;;;;20.10;101198.00;;;;5079881;28;20749;-76
2022/10/16 08:43:17;;;;;;;2.85;1.02;;;;;20.10;101198.00;;;;5068731;28;20202;-75
2022/10/16 08:45:58;;;;;;;1.58;1.40;;;;;20.20;101209.00;;;;5070388;28;20545;-76
2022/10/16 08:48:30;;;;;;;4.28;1.00;;;;;20.20;101212.00;;;;5080872;28;20201;-76
2022/10/16 08:50:57;;;;;;;1.65;0.98;;;;;20.30;101222.00;;;;5088164;28;20202;-76
2022/10/16 08:53:30;;;;;;;2.63;0.90;;;;;20.30;101224.00;;;;5085091;28;20202;-75
2022/10/16 08:55:58;;;;;;;1.52;0.85;;;;;20.40;101219.00;;;;5086112;28;20187;-74
2022/10/16 08:58:29;;;;;;;1.05;0.75;;;;;20.40;101230.00;;;;5079556;28;20202;-75
2022/10/16 09:01:01;;;;;;;1.35;0.77;;;;;20.50;101234.00;;;;5082455;28;20225;-76
2022/10/16 09:03:52;;;;;;;3.38;0.95;;;;;20.50;101230.00;;;;5080330;28;20203;-77
2022/10/16 09:06:30;;;;;;;2.50;0.88;;;;;20.60;101236.00;;;;5073920;28;20194;-76
2022/10/16 09:09:13;;;;;;;1.77;1.00;;;;;20.60;101242.00;;;;5072269;28;20201;-77
2022/10/16 09:11:49;;;;;;;2.88;0.88;;;;;20.70;101243.00;;;;5088209;28;20198;-76
2022/10/16 09:14:36;;;;;;;2.30;0.90;;;;;20.80;101246.00;;;;5088679;28;20201;-75
2022/10/16 09:17:27;;;;;;;3.97;1.35;;;;;20.90;101253.00;;;;5085479;28;20214;-77
2022/10/16 09:20:01;;;;;;;2.38;0.77;;;;;21.00;101252.00;;;;5090755;28;20202;-78
2022/10/16 09:22:29;;;;;;;3.67;0.80;;;;;21.10;101250.00;;;;5088060;28;20226;-79
2022/10/16 09:25:05;;;;;;;1.30;0.90;;;;;21.10;101258.00;;;;5091204;28;20204;-77
2022/10/16 09:27:33;;;;;;;3.08;1.20;;;;;21.30;101261.00;;;;5078426;28;20186;-77
2022/10/16 09:30:00;;;;;;;2.42;1.00;;;;;21.40;101252.00;;;;5065247;28;20230;-78
2022/10/16 09:32:30;;;;;;;2.28;0.85;;;;;21.40;101266.00;;;;5066226;28;20198;-77
2022/10/16 09:34:58;;;;;;;4.47;1.17;;;;;21.60;101268.00;;;;5074751;28;20206;-78
2022/10/16 09:37:26;;;;;;;3.78;1.17;;;;;21.70;101271.00;;;;5078008;28;20222;-78
2022/10/16 09:39:55;;;;;;;2.78;0.98;;;;;21.70;101273.00;;;;5079436;28;20217;-78
2022/10/16 09:42:25;;;;;;;4.60;0.90;;;;;21.80;101273.00;;;;5070744;28;20205;-78
2022/10/16 09:44:54;;;;;;;1.98;0.80;;;;;22.00;101273.00;;;;5070739;28;20195;-78
2022/10/16 09:47:24;;;;;;;2.13;1.00;;;;;22.10;101272.00;;;;5091203;28;20243;-76
2022/10/16 09:49:54;;;;;;;3.08;1.00;;;;;22.20;101270.00;;;;5090817;28;20607;-77
2022/10/16 09:52:23;;;;;;;4.35;0.90;;;;;22.20;101275.00;;;;5088711;28;20202;-77
2022/10/16 09:54:51;;;;;;;4.70;1.15;;;;;22.30;101272.00;;;;5089899;28;20210;-78
2022/10/16 09:57:19;;;;;;;6.75;1.77;;;;;22.40;101278.00;;;;5090762;28;20222;-77
2022/10/16 09:59:49;;;;;;;3.13;1.15;;;;;22.50;101283.00;;;;5089042;28;20190;-77
2022/10/16 10:02:18;;;;;;;4.97;1.13;;;;;22.60;101277.00;;;;5070311;28;20633;-78
2022/10/16 10:04:50;;;;;;;2.30;0.85;;;;;22.70;101296.00;;;;5071946;28;21051;-77
2022/10/16 10:07:26;;;;;;;3.92;0.90;;;;;22.60;101288.00;;;;5070029;28;20667;-79
2022/10/16 10:09:53;;;;;;;4.05;1.63;;;;;22.70;101297.00;;;;5075681;28;20533;-77
2022/10/16 10:12:23;;;;;;;6.90;1.05;;;;;22.70;101300.00;;;;5084860;28;20211;-77
2022/10/16 10:14:52;;;;;;;4.68;0.93;;;;;22.80;101302.00;;;;5082334;28;20234;-77
2022/10/16 10:17:21;;;;;;;5.25;1.10;;;;;22.80;101302.00;;;;5088490;28;20225;-77
2022/10/16 10:19:54;;;;;;;5.80;1.20;;;;;22.90;101302.00;;;;5088493;28;20201;-76
2022/10/16 10:22:32;;;;;;;4.68;1.38;;;;;22.90;101303.00;;;;5090151;28;20218;-77
2022/10/16 10:25:29;;;;;;;4.93;0.90;;;;;22.90;101312.00;;;;5089512;28;20190;-77
2022/10/16 10:28:11;;;;;;;5.32;0.82;;;;;23.00;101305.00;;;;5069363;28;20191;-77
2022/10/16 10:30:46;;;;;;;2.40;0.68;;;;;23.10;101316.00;;;;5080408;28;20221;-77
2022/10/16 10:33:21;;;;;;;4.18;1.25;;;;;23.20;101324.00;;;;5076619;28;20194;-78
2022/10/16 10:35:55;;;;;;;2.28;1.05;;;;;23.20;101315.00;;;;5080820;28;20602;-78
2022/10/16 10:38:38;;;;;;;5.82;1.73;;;;;23.30;101320.00;;;;5084310;28;20222;-78
2022/10/16 10:41:23;;;;;;;5.43;1.30;;;;;23.30;101325.00;;;;5078930;28;20190;-77
2022/10/16 10:44:04;;;;;;;2.28;0.75;;;;;23.40;101331.00;;;;5065564;28;20225;-78
2022/10/16 10:46:36;;;;;;;2.60;0.75;;;;;23.50;101331.00;;;;5088762;28;20203;-79
2022/10/16 10:49:24;;;;;;;3.33;0.82;;;;;23.40;101334.00;;;;5084153;28;20281;-77
2022/10/16 10:52:01;;;;;;;4.32;1.60;;;;;23.60;101335.00;;;;5076875;28;20213;-77
2022/10/16 10:54:39;;;;;;;5.22;1.02;;;;;23.60;101330.00;;;;5077761;28;20198;-78
2022/10/16 10:57:16;;;;;;;2.88;0.82;;;;;23.70;101338.00;;;;5082731;28;20213;-77
2022/10/16 11:00:07;;;;;;;6.20;0.82;;;;;23.70;101335.00;;;;5087874;28;20198;-77
2022/10/16 11:02:39;;;;;;;1.10;0.40;;;;;23.80;101345.00;;;;5080828;28;20194;-77
2022/10/16 11:05:31;;;;;;;3.40;0.90;;;;;23.80;101341.00;;;;5079354;28;20202;-77
2022/10/16 11:08:01;;;;;;;4.45;0.95;;;;;23.90;101346.00;;;;5076967;28;20198;-77
2022/10/16 11:10:35;;;;;;;6.70;1.52;;;;;23.80;101351.00;;;;5077884;28;20197;-77
2022/10/16 11:13:11;;;;;;;2.38;0.95;;;;;23.80;101355.00;;;;5084740;28;20202;-77
2022/10/16 11:15:42;;;;;;;3.33;0.73;;;;;23.80;101360.00;;;;5080425;28;20194;-76
2022/10/16 11:18:14;;;;;;;2.38;0.90;;;;;23.80;101352.00;;;;5072347;28;20715;-77
2022/10/16 11:20:47;;;;;;;2.53;0.75;;;;;23.90;101358.00;;;;5077545;28;20206;-77
2022/10/16 11:23:22;;;;;;;3.25;1.25;;;;;23.90;101360.00;;;;5078991;28;20219;-75
2022/10/16 11:25:51;;;;;;;2.70;0.73;;;;;23.90;101364.00;;;;5085451;28;20243;-77
2022/10/16 11:28:25;;;;;;;2.47;0.80;;;;;23.90;101379.00;;;;5086806;28;20202;-76
2022/10/16 11:30:56;;;;;;;3.63;1.00;;;;;24.00;101374.00;;;;5087756;28;20574;-77
2022/10/16 11:33:31;;;;;;;2.25;0.82;;;;;24.00;101375.00;;;;5086287;28;20201;-78
2022/10/16 11:36:04;;;;;;;3.53;1.00;;;;;24.10;101365.00;;;;5086549;28;20338;-78
2022/10/16 11:38:38;;;;;;;3.92;0.90;;;;;24.10;101372.00;;;;5087776;28;20699;-78
2022/10/16 11:41:18;;;;;;;7.43;1.00;;;;;24.10;101372.00;;;;5088950;28;20226;-77
2022/10/16 11:43:54;;;;;;;4.20;1.00;;;;;24.20;101366.00;;;;5087124;28;20190;-77
2022/10/16 11:46:25;;;;;;;2.72;0.52;;;;;24.20;101375.00;;;;5081582;28;20206;-77
2022/10/16 11:49:00;;;;;;;9.07;0.95;;;;;24.20;101381.00;;;;5071210;28;20197;-76
2022/10/16 11:51:36;;;;;;;2.65;0.70;;;;;24.20;101383.00;;;;5088368;28;20201;-76
2022/10/16 11:54:11;;;;;;;5.78;0.90;;;;;24.30;101381.00;;;;5088009;28;20223;-76
2022/10/16 11:56:41;;;;;;;5.72;1.38;;;;;24.30;101390.00;;;;5087865;28;20198;-76
2022/10/16 11:59:17;;;;;;;3.15;1.20;;;;;24.40;101394.00;;;;5086110;28;20275;-77
2022/10/16 12:01:48;;;;;;;3.92;0.90;;;;;24.40;101392.00;;;;5079826;28;20198;-77
2022/10/16 12:04:22;;;;;;;3.58;0.60;;;;;24.40;101400.00;;;;5087691;28;20213;-76
2022/10/16 12:06:53;;;;;;;3.45;0.68;;;;;24.50;101389.00;;;;5086806;28;20202;-76
2022/10/16 12:09:25;;;;;;;5.93;1.10;;;;;24.50;101408.00;;;;5086346;28;20695;-76
2022/10/16 12:11:55;;;;;;;6.07;1.10;;;;;24.50;101405.00;;;;5081988;28;20576;-76
2022/10/16 12:14:39;;;;;;;1.98;0.52;;;;;24.40;101407.00;;;;5071575;28;20819;-77
2022/10/16 12:17:26;;;;;;;3.20;0.93;;;;;24.30;101410.00;;;;5074469;28;20237;-76
2022/10/16 12:20:01;;;;;;;1.77;0.43;;;;;24.40;101406.00;;;;5086410;28;20236;-76
2022/10/16 12:22:30;;;;;;;2.65;0.85;;;;;24.40;101411.00;;;;5080913;28;20213;-76
2022/10/16 12:24:59;;;;;;;3.45;0.68;;;;;24.40;101413.00;;;;5088247;28;20198;-76